Time;durP1;ratioP1;P1;durP2;ratioP2;P2;SDS_P1;SDS_P2;PMS_P1;PMS_P2;Temp;Humidity;BMP_temperature;BMP_pressure;BME280_temperature;BME280_humidity;BME280_pressure;Samples;Min_cycle;Max_cycle;Signal;HPM_P1;HPM_P2
2021/12/12 00:03:16;;;;;;;14.43;8.38;;;;;;;2.45;60.86;98422.25;9886629;30;20052;-80
2021/12/12 00:08:26;;;;;;;11.60;7.78;;;;;;;2.42;61.31;98428.81;9889324;29;20047;-80
2021/12/12 00:13:54;;;;;;;14.90;8.85;;;;;;;2.42;60.76;98420.56;9898632;29;20096;-80
2021/12/12 00:19:15;;;;;;;12.70;7.57;;;;;;;2.46;61.02;98423.00;9885845;30;20113;-79
2021/12/12 00:24:37;;;;;;;12.40;7.78;;;;;;;2.43;61.27;98429.56;9898248;29;20498;-79
2021/12/12 00:30:02;;;;;;;11.85;7.88;;;;;;;2.41;61.08;98432.81;9898507;30;20426;-80
2021/12/12 00:35:23;;;;;;;10.55;6.80;;;;;;;2.43;60.75;98433.06;9910116;30;20428;-80
2021/12/12 00:40:45;;;;;;;10.63;7.18;;;;;;;2.40;60.94;98445.13;9898117;30;20055;-80
2021/12/12 00:46:07;;;;;;;10.38;7.07;;;;;;;2.37;60.85;98457.19;9869829;29;20525;-80
2021/12/12 00:51:31;;;;;;;10.80;6.75;;;;;;;2.36;61.72;98461.22;9897205;29;20052;-80
2021/12/12 00:56:52;;;;;;;8.27;6.15;;;;;;;2.40;61.21;98461.66;9896986;29;20536;-80
2021/12/12 01:02:21;;;;;;;9.73;6.10;;;;;;;2.43;60.42;98470.91;9884358;30;20063;-80
2021/12/12 01:07:43;;;;;;;9.93;6.22;;;;;;;2.43;61.39;98460.63;9896675;29;20131;-80
2021/12/12 01:13:05;;;;;;;8.98;5.72;;;;;;;2.44;60.96;98466.88;9884021;30;20062;-80
2021/12/12 01:18:29;;;;;;;10.45;6.40;;;;;;;2.43;60.49;98470.91;9896656;29;20054;-80
2021/12/12 01:24:02;;;;;;;8.43;5.65;;;;;;;2.46;60.94;98469.84;9914750;29;20513;-80
2021/12/12 01:29:23;;;;;;;7.80;5.65;;;;;;;2.40;61.05;98463.66;9902839;29;20047;-79
2021/12/12 01:34:44;;;;;;;10.82;6.25;;;;;;;2.35;60.82;98450.72;9889487;29;20099;-79
2021/12/12 01:40:16;;;;;;;9.82;5.75;;;;;;;2.30;61.17;98453.00;9899095;29;20040;-79
2021/12/12 01:45:48;;;;;;;8.95;5.80;;;;;;;2.24;61.20;98449.59;9894253;29;20122;-79
2021/12/12 01:51:09;;;;;;;12.20;6.00;;;;;;;2.16;61.06;98431.44;9893161;29;20057;-79
2021/12/12 01:56:39;;;;;;;8.88;5.13;;;;;;;2.11;61.38;98423.97;9888986;29;20047;-80
2021/12/12 02:02:13;;;;;;;12.40;5.82;;;;;;;1.95;61.41;98434.72;9902853;29;20067;-79
2021/12/12 02:07:36;;;;;;;9.60;5.27;;;;;;;1.76;61.43;98433.94;9881641;29;20071;-79
2021/12/12 02:13:05;;;;;;;8.30;4.70;;;;;;;1.64;61.35;98432.56;9886430;29;20053;-79
2021/12/12 02:18:31;;;;;;;7.72;4.90;;;;;;;1.59;61.80;98444.38;9885419;29;20047;-80
2021/12/12 02:40:49;;;;;;;9.45;5.80;;;;;;;1.10;62.68;98455.38;9900886;29;20043;-79
2021/12/12 02:46:13;;;;;;;9.73;5.88;;;;;;;0.95;63.56;98471.47;9903686;29;20130;-79
2021/12/12 02:51:39;;;;;;;9.35;6.50;;;;;;;0.89;63.04;98470.78;9906470;29;20430;-79
2021/12/12 02:57:00;;;;;;;9.45;6.07;;;;;;;0.85;63.25;98482.78;9886333;29;20046;-79
2021/12/12 03:02:27;;;;;;;10.75;5.88;;;;;;;0.80;63.52;98480.84;9844641;30;20086;-80
2021/12/12 03:07:47;;;;;;;12.38;7.07;;;;;;;0.77;64.22;98470.88;9846661;30;20113;-80
2021/12/12 03:13:08;;;;;;;10.73;6.72;;;;;;;0.76;63.95;98474.88;9864052;30;20055;-79
2021/12/12 03:18:32;;;;;;;12.20;6.47;;;;;;;0.74;64.01;98496.63;9864277;30;20398;-80
2021/12/12 03:23:55;;;;;;;13.70;7.00;;;;;;;0.73;64.11;98495.13;9851041;30;20052;-80
2021/12/12 03:29:16;;;;;;;12.93;6.90;;;;;;;0.69;64.49;98494.66;9863488;30;20501;-80
2021/12/12 03:34:38;;;;;;;11.20;6.60;;;;;;;0.66;64.33;98492.91;9851052;30;20052;-80
2021/12/12 03:40:05;;;;;;;10.10;7.13;;;;;;;0.64;64.20;98484.44;9863135;30;20056;-80
2021/12/12 03:45:26;;;;;;;12.80;7.40;;;;;;;0.64;64.73;98478.94;9850436;30;20055;-80
2021/12/12 03:50:48;;;;;;;13.32;6.95;;;;;;;0.62;64.54;98488.97;9862985;30;20052;-79
2021/12/12 03:56:10;;;;;;;17.35;8.02;;;;;;;0.49;65.17;98495.78;9850039;30;20541;-79
2021/12/12 04:01:35;;;;;;;12.43;7.35;;;;;;;0.46;65.20;98496.78;9862061;30;20479;-80
2021/12/12 04:06:56;;;;;;;12.98;7.57;;;;;;;0.41;65.13;98500.31;9861583;30;20059;-79
2021/12/12 04:12:18;;;;;;;16.30;7.85;;;;;;;0.40;65.42;98504.31;9861812;30;20054;-79
2021/12/12 04:17:39;;;;;;;12.27;7.97;;;;;;;0.33;65.75;98518.59;9849098;30;20488;-80
2021/12/12 04:23:00;;;;;;;13.75;7.70;;;;;;;0.24;65.93;98525.13;9860352;30;20064;-79
2021/12/12 04:28:20;;;;;;;13.77;8.07;;;;;;;0.21;65.85;98523.38;9859110;30;20407;-79
2021/12/12 04:33:41;;;;;;;15.10;8.88;;;;;;;0.14;65.96;98532.16;9860405;30;20047;-79
2021/12/12 04:39:13;;;;;;;14.57;8.25;;;;;;;0.11;66.64;98524.19;9860904;30;20048;-79
2021/12/12 04:44:37;;;;;;;13.80;7.97;;;;;;;0.09;66.86;98538.38;9860432;30;20395;-79
2021/12/12 04:50:36;;;;;;;12.95;8.40;;;;;;;0.08;66.37;98544.38;9860457;30;20052;-79
2021/12/12 04:56:05;;;;;;;15.63;8.40;;;;;;;0.00;66.99;98544.19;9840561;30;20396;-80
2021/12/12 05:01:45;;;;;;;13.68;8.32;;;;;;;0.00;66.82;98538.69;9860662;30;20052;-79
2021/12/12 05:07:24;;;;;;;15.00;8.73;;;;;;;-0.04;67.06;98541.69;9847436;30;20055;-79
2021/12/12 05:12:51;;;;;;;12.80;8.32;;;;;;;-0.09;67.00;98542.47;9847872;30;20483;-79
2021/12/12 05:18:32;;;;;;;12.15;8.20;;;;;;;-0.14;67.00;98551.44;9858560;30;20051;-80
2021/12/12 05:23:57;;;;;;;13.40;8.63;;;;;;;-0.14;67.07;98540.47;9863256;29;20116;-79
2021/12/12 05:29:21;;;;;;;16.10;8.93;;;;;;;-0.15;67.62;98544.47;9876731;29;20055;-79
2021/12/12 05:34:44;;;;;;;;;;;;;;;-0.16;67.90;98542.22;9883513;30;20062;-79
2021/12/12 05:40:07;;;;;;;14.73;8.63;;;;;;;-0.15;67.99;98538.97;9895550;30;19937;-79
2021/12/12 05:45:29;;;;;;;13.43;7.88;;;;;;;-0.14;68.20;98547.94;9884039;30;20043;-79
2021/12/12 05:50:50;;;;;;;12.18;7.80;;;;;;;-0.12;67.70;98559.16;9870646;30;20090;-79
2021/12/12 05:56:11;;;;;;;12.73;7.90;;;;;;;-0.16;67.72;98572.41;9888440;29;20389;-79
2021/12/12 06:01:32;;;;;;;13.95;8.52;;;;;;;-0.14;68.02;98600.09;9905168;29;20062;-79
2021/12/12 06:06:53;;;;;;;12.38;8.40;;;;;;;-0.14;68.21;98589.13;9900915;29;20487;-79
2021/12/12 06:12:14;;;;;;;13.82;8.75;;;;;;;-0.16;68.07;98594.38;9902137;29;20521;-79
2021/12/12 06:17:35;;;;;;;13.23;8.52;;;;;;;-0.20;68.22;98602.84;9898801;29;20054;-79
2021/12/12 06:22:56;;;;;;;14.40;8.63;;;;;;;-0.22;68.54;98604.59;9899040;29;20406;-79
2021/12/12 06:28:26;;;;;;;14.75;8.70;;;;;;;-0.19;68.71;98609.06;9913369;29;20047;-79
2021/12/12 06:33:47;;;;;;;13.75;8.70;;;;;;;-0.18;68.83;98618.81;9903458;29;20051;-79
2021/12/12 06:39:09;;;;;;;13.00;8.27;;;;;;;-0.17;68.89;98623.06;9901168;29;20047;-79
2021/12/12 06:44:35;;;;;;;12.70;8.65;;;;;;;-0.15;69.13;98621.31;9890257;29;20046;-79
2021/12/12 06:49:56;;;;;;;12.23;8.13;;;;;;;-0.13;68.77;98629.03;9924931;29;20047;-79
2021/12/12 06:55:17;;;;;;;12.73;7.57;;;;;;;-0.04;69.26;98639.75;9925791;29;20063;-79
2021/12/12 07:00:37;;;;;;;11.82;8.25;;;;;;;0.00;68.78;98643.00;9925548;29;20043;-79
2021/12/12 07:05:58;;;;;;;11.25;7.97;;;;;;;0.08;68.92;98649.47;9912581;29;20115;-79
2021/12/12 07:11:20;;;;;;;12.70;9.07;;;;;;;0.21;68.66;98649.69;9924895;29;20050;-79
2021/12/12 07:16:42;;;;;;;13.00;7.97;;;;;;;1.69;68.32;98649.19;9923985;29;20051;-79
2021/12/12 07:22:03;;;;;;;12.05;7.90;;;;;;;4.18;64.55;98661.56;9875459;30;21296;-79
2021/12/12 07:27:24;;;;;;;11.60;8.30;;;;;;;4.72;63.94;98652.00;9887353;29;20051;-79
2021/12/12 07:32:45;;;;;;;12.90;9.13;;;;;;;5.70;63.35;98651.66;9874592;30;20089;-79
2021/12/12 07:38:07;;;;;;;13.13;9.07;;;;;;;9.20;58.71;98672.56;9887153;30;20051;-79
2021/12/12 07:43:30;;;;;;;12.48;9.32;;;;;;;13.59;51.19;98672.16;9912574;29;20047;-79
2021/12/12 07:48:52;;;;;;;11.63;7.72;;;;;;;16.23;47.82;98677.44;9888150;30;20101;-80
2021/12/12 07:54:13;;;;;;;9.63;7.68;;;;;;;18.97;41.00;98677.66;9860052;30;20056;-79
2021/12/12 07:59:35;;;;;;;9.43;7.20;;;;;;;19.96;42.83;98678.09;9854013;30;20109;-77
2021/12/12 08:04:56;;;;;;;8.68;7.47;;;;;;;21.71;39.35;98685.44;9855196;30;20518;-78
2021/12/12 08:10:17;;;;;;;6.82;6.13;;;;;;;22.97;35.21;98677.91;9839027;30;20051;-79
2021/12/12 08:15:38;;;;;;;7.72;6.30;;;;;;;22.98;35.11;98696.47;9837767;30;20048;-79
2021/12/12 08:20:59;;;;;;;6.60;5.75;;;;;;;23.42;32.38;98700.03;9837053;30;20059;-79
2021/12/12 08:26:21;;;;;;;7.72;6.28;;;;;;;22.51;32.89;98704.09;9850835;30;20051;-79
2021/12/12 08:31:42;;;;;;;8.63;6.22;;;;;;;23.84;29.55;98717.06;9838727;30;20390;-77
2021/12/12 08:37:04;;;;;;;7.60;6.03;;;;;;;25.68;27.75;98701.31;9850777;30;20043;-78
2021/12/12 08:42:27;;;;;;;6.68;5.97;;;;;;;25.10;26.64;98717.78;9848458;30;20055;-79
2021/12/12 08:47:48;;;;;;;7.55;5.65;;;;;;;26.50;24.60;98725.97;9849597;30;20055;-79
2021/12/12 08:53:09;;;;;;;6.80;5.88;;;;;;;26.72;23.51;98717.06;9835846;30;20067;-79
2021/12/12 08:58:32;;;;;;;6.75;5.40;;;;;;;25.94;22.50;98703.31;9837377;30;20048;-79
2021/12/12 09:03:58;;;;;;;6.60;5.57;;;;;;;27.01;20.80;98724.06;9847192;30;20063;-79
2021/12/12 09:09:51;;;;;;;6.10;5.50;;;;;;;26.04;18.89;98717.84;9850587;30;20059;-79
2021/12/12 09:15:19;;;;;;;6.57;5.85;;;;;;;27.19;17.69;98720.81;9848133;30;20174;-79
2021/12/12 09:20:49;;;;;;;6.95;5.85;;;;;;;27.83;18.25;98729.03;9834480;30;20499;-79
2021/12/12 09:26:18;;;;;;;6.53;5.93;;;;;;;26.95;18.42;98716.09;9847058;30;20043;-79
2021/12/12 09:31:43;;;;;;;6.22;5.63;;;;;;;28.14;17.35;98701.47;9846448;30;20430;-79
2021/12/12 09:37:21;;;;;;;5.43;4.93;;;;;;;28.10;16.31;98707.88;9833517;30;20563;-77
2021/12/12 09:42:49;;;;;;;6.03;5.10;;;;;;;28.42;16.38;98706.84;9858296;30;20124;-80
2021/12/12 09:51:14;;;;;;;6.32;5.45;;;;;;;28.58;15.31;98698.44;9854552;30;20070;-80
2021/12/12 09:54:24;;;;;;;5.13;4.55;;;;;;;27.13;16.15;98692.06;9869009;30;20135;-80
2021/12/12 10:00:07;;;;;;;4.82;4.43;;;;;;;27.72;15.60;98687.28;9845212;30;20085;-80
2021/12/12 10:05:54;;;;;;;5.70;4.90;;;;;;;27.53;15.04;98689.84;9869975;30;20055;-80
2021/12/12 10:11:42;;;;;;;6.32;5.32;;;;;;;26.94;16.28;98683.13;9870594;30;20052;-80
2021/12/12 10:17:06;;;;;;;5.70;5.18;;;;;;;27.71;15.00;98685.81;9860259;30;20044;-80
2021/12/12 10:22:39;;;;;;;5.88;5.28;;;;;;;23.89;17.12;98684.41;9852650;30;20250;-80
2021/12/12 10:28:20;;;;;;;5.95;4.95;;;;;;;24.70;17.71;98669.59;9877699;30;20058;-80
2021/12/12 10:33:44;;;;;;;5.80;5.20;;;;;;;25.85;15.59;98673.81;9852453;30;20502;-79
2021/12/12 10:39:11;;;;;;;7.35;6.05;;;;;;;20.60;18.21;98668.16;9852287;30;20475;-79
2021/12/12 10:44:34;;;;;;;8.55;6.72;;;;;;;17.03;21.90;98658.19;9852410;30;20535;-79
2021/12/12 10:50:41;;;;;;;8.27;6.60;;;;;;;14.99;24.98;98650.75;9876709;30;20518;-79
2021/12/12 10:56:05;;;;;;;8.48;6.53;;;;;;;13.72;25.99;98654.88;9873501;30;20082;-77
2021/12/12 11:10:02;;;;;;;8.07;6.35;;;;;;;12.61;30.02;98648.31;9879250;30;20044;-78
2021/12/12 11:15:25;;;;;;;9.60;6.30;;;;;;;12.23;28.86;98658.09;9854936;30;20051;-77
2021/12/12 11:20:54;;;;;;;7.60;6.03;;;;;;;11.96;30.75;98649.75;9866930;30;20044;-79
2021/12/12 11:26:27;;;;;;;8.80;6.78;;;;;;;11.63;31.46;98654.91;9868095;30;20048;-79
2021/12/12 11:31:50;;;;;;;7.60;5.68;;;;;;;11.39;32.42;98634.19;9868024;30;20543;-79
2021/12/12 11:37:41;;;;;;;7.03;5.90;;;;;;;11.13;32.46;98635.63;9880183;30;20491;-78
2021/12/12 11:43:06;;;;;;;6.72;5.15;;;;;;;10.64;33.26;98630.25;9868050;30;20044;-79
2021/12/12 11:49:12;;;;;;;6.57;5.38;;;;;;;10.29;35.42;98630.22;9857901;30;20475;-78
2021/12/12 11:55:07;;;;;;;7.18;5.25;;;;;;;10.22;34.84;98628.97;9722428;30;20057;-78
2021/12/12 12:00:35;;;;;;;7.35;5.00;;;;;;;10.04;35.76;98611.44;9778167;30;20064;-80
2021/12/12 12:06:10;;;;;;;6.80;4.93;;;;;;;9.81;35.99;98615.72;9853607;30;20533;-78
2021/12/12 12:12:04;;;;;;;6.85;5.18;;;;;;;9.62;37.45;98597.44;9852737;30;20128;-77
2021/12/12 12:17:56;;;;;;;8.70;5.45;;;;;;;9.53;38.13;98616.84;9864793;30;20487;-79
2021/12/12 12:23:42;;;;;;;7.05;5.15;;;;;;;9.49;38.38;98614.47;9864189;30;20449;-77
2021/12/12 12:29:26;;;;;;;7.88;5.32;;;;;;;9.40;39.25;98624.16;9865666;30;20407;-77
2021/12/12 12:35:35;;;;;;;8.70;6.10;;;;;;;9.14;39.91;98616.31;9875648;30;20077;-78
2021/12/12 12:41:51;;;;;;;7.32;5.70;;;;;;;8.94;40.49;98629.22;9849750;30;20101;-78
2021/12/12 12:48:02;;;;;;;7.95;5.88;;;;;;;8.76;41.08;98617.22;9779312;30;20514;-78
2021/12/12 12:53:58;;;;;;;8.30;5.38;;;;;;;8.62;42.37;98610.41;9875439;30;20419;-77
2021/12/12 12:59:37;;;;;;;7.13;5.88;;;;;;;8.66;41.63;98615.59;9874802;30;20048;-78
2021/12/12 13:05:07;;;;;;;10.80;6.28;;;;;;;8.43;43.26;98612.88;9873986;30;20124;-78
2021/12/12 13:10:29;;;;;;;8.93;5.70;;;;;;;8.28;43.01;98606.00;9860674;30;20477;-78
2021/12/12 13:16:32;;;;;;;9.10;5.97;;;;;;;7.68;44.89;98595.66;9852571;29;20059;-78
2021/12/12 13:22:09;;;;;;;8.10;5.65;;;;;;;7.72;44.68;98591.22;9871129;29;20088;-81
2021/12/12 13:33:54;;;;;;;7.97;5.47;;;;;;;7.52;44.84;98597.66;9924855;29;20059;-81
2021/12/12 13:39:47;;;;;;;6.85;5.60;;;;;;;7.43;45.48;98609.31;9924364;29;20058;-83
2021/12/12 13:45:29;;;;;;;8.18;5.20;;;;;;;7.36;45.98;98594.13;9908425;29;20082;-80
2021/12/12 13:50:52;;;;;;;7.28;5.60;;;;;;;7.25;46.18;98602.09;9937450;29;20414;-78
2021/12/12 13:56:35;;;;;;;8.18;5.00;;;;;;;6.97;46.85;98609.22;9964919;29;20047;-83
2021/12/12 14:02:04;;;;;;;10.15;4.90;;;;;;;6.63;47.04;98619.78;9950661;29;20107;-85
2021/12/12 14:07:41;;;;;;;7.72;4.70;;;;;;;6.55;47.98;98619.75;9939501;29;20042;-78
2021/12/12 14:13:25;;;;;;;7.30;4.75;;;;;;;6.54;48.55;98613.44;9919498;29;20047;-78
2021/12/12 14:18:55;;;;;;;5.40;4.00;;;;;;;6.53;48.62;98639.72;9907347;29;20492;-78
2021/12/12 14:24:16;;;;;;;6.05;3.65;;;;;;;6.39;48.26;98630.03;9920023;29;20491;-80
2021/12/12 14:29:38;;;;;;;7.95;3.75;;;;;;;6.12;49.37;98634.28;9920980;29;20069;-80
2021/12/12 14:35:08;;;;;;;5.95;3.15;;;;;;;5.83;49.69;98619.59;9921020;29;20558;-78
2021/12/12 14:40:31;;;;;;;6.18;3.20;;;;;;;5.63;50.46;98629.41;9923360;29;20062;-79
2021/12/12 14:45:55;;;;;;;6.75;2.65;;;;;;;5.43;50.32;98639.19;9920995;29;20047;-78
2021/12/12 14:51:25;;;;;;;4.60;2.78;;;;;;;5.28;51.49;98644.56;9940112;29;20405;-84
2021/12/12 14:56:49;;;;;;;6.15;3.03;;;;;;;5.16;51.78;98636.50;9928963;29;20106;-79
2021/12/12 15:02:17;;;;;;;5.65;2.58;;;;;;;5.06;51.47;98624.41;9926832;29;20062;-81
2021/12/12 15:07:41;;;;;;;4.78;2.25;;;;;;;5.01;52.60;98616.19;9923083;29;20054;-81
2021/12/12 15:13:09;;;;;;;5.82;2.97;;;;;;;4.85;52.44;98604.22;9921855;29;20057;-80
2021/12/12 15:18:34;;;;;;;4.38;2.58;;;;;;;4.73;53.36;98600.97;9919487;29;20125;-81
2021/12/12 15:24:05;;;;;;;6.87;3.53;;;;;;;4.69;52.74;98600.53;9931340;29;20043;-79
2021/12/12 15:29:27;;;;;;;8.70;3.75;;;;;;;4.55;53.70;98604.59;9929899;29;20055;-77
2021/12/12 15:34:51;;;;;;;7.70;3.45;;;;;;;4.47;54.42;98614.81;9927626;29;20058;-80
2021/12/12 15:40:21;;;;;;;6.47;3.50;;;;;;;4.57;54.00;98615.88;9930730;29;20531;-80
2021/12/12 15:45:49;;;;;;;6.93;3.88;;;;;;;4.61;54.25;98607.97;9958780;29;20051;-81
2021/12/12 15:51:11;;;;;;;6.50;3.75;;;;;;;4.48;54.07;98602.47;9947853;29;20054;-82
2021/12/12 15:56:44;;;;;;;7.68;3.47;;;;;;;4.46;54.51;98607.78;9948664;29;20117;-81
2021/12/12 16:02:07;;;;;;;6.80;3.25;;;;;;;4.41;55.12;98605.88;9936515;29;20540;-80
2021/12/12 16:07:29;;;;;;;8.50;3.95;;;;;;;4.42;56.03;98608.09;9920486;29;20043;-84
2021/12/12 16:12:50;;;;;;;8.25;4.47;;;;;;;4.47;55.32;98614.81;9943480;29;20095;-83
2021/12/12 16:18:12;;;;;;;7.80;3.97;;;;;;;4.45;55.40;98611.84;9957389;29;20066;-83
2021/12/12 16:23:33;;;;;;;7.53;4.22;;;;;;;4.47;55.80;98610.03;9931320;29;20043;-81
2021/12/12 16:29:04;;;;;;;9.35;3.90;;;;;;;4.41;56.95;98592.03;9928968;29;20051;-82
2021/12/12 16:34:36;;;;;;;9.15;3.38;;;;;;;4.40;56.03;98596.84;9951701;29;20083;-83
2021/12/12 16:40:09;;;;;;;10.82;4.05;;;;;;;4.43;56.83;98600.53;9959178;29;20058;-83
2021/12/12 16:45:39;;;;;;;6.10;3.38;;;;;;;4.45;56.50;98612.59;9959117;29;20038;-84
2021/12/12 16:51:02;;;;;;;8.00;4.03;;;;;;;4.48;56.60;98613.53;10313635;24;20070;-81
2021/12/12 17:02:56;;;;;;;9.55;4.25;;;;;;;4.50;56.98;98602.69;11947446;24;20868;31
2021/12/12 17:08:36;;;;;;;10.23;4.18;;;;;;;4.48;56.90;98613.53;10500498;24;20174;-79
2021/12/12 17:13:58;;;;;;;8.57;3.75;;;;;;;4.53;56.66;98598.84;9835077;30;20035;-82
2021/12/12 17:19:34;;;;;;;7.35;4.63;;;;;;;4.53;56.90;98607.13;9813421;30;20083;-80
2021/12/12 17:25:00;;;;;;;9.75;4.25;;;;;;;4.43;56.93;98606.81;9810413;30;20048;-80
2021/12/12 17:30:24;;;;;;;9.00;4.22;;;;;;;4.34;56.96;98598.22;9820745;30;20059;-80
2021/12/12 17:36:07;;;;;;;6.50;4.03;;;;;;;4.35;57.34;98608.00;9824307;30;20084;-80
2021/12/12 17:41:53;;;;;;;7.93;4.65;;;;;;;4.35;57.86;98608.00;9815189;30;20051;-81
2021/12/12 17:47:52;;;;;;;8.95;5.50;;;;;;;4.43;57.43;98597.78;9858954;30;20063;-81
2021/12/12 17:53:24;;;;;;;12.30;5.38;;;;;;;4.23;58.09;98586.09;9844780;30;20063;-77
2021/12/12 17:59:05;;;;;;;10.60;7.45;;;;;;;4.24;58.18;98598.63;9799406;30;20062;-78
2021/12/12 18:04:27;;;;;;;34.03;22.27;;;;;;;4.21;58.08;98596.94;9804074;30;20063;-78
2021/12/12 18:10:26;;;;;;;9.90;6.03;;;;;;;4.25;58.73;98578.03;9822552;30;20064;-79
2021/12/12 18:16:00;;;;;;;10.18;5.20;;;;;;;4.16;58.69;98575.69;9847294;30;20484;-79
2021/12/12 18:21:37;;;;;;;12.23;7.10;;;;;;;4.11;59.60;98576.53;9834224;30;20052;-81
2021/12/12 18:27:12;;;;;;;13.07;6.60;;;;;;;4.04;59.27;98574.41;9864649;29;20052;-84
2021/12/12 18:32:37;;;;;;;9.57;6.33;;;;;;;4.12;61.17;98574.50;9857619;30;20044;-80
2021/12/12 18:38:12;;;;;;;11.45;6.68;;;;;;;3.99;60.61;98558.69;9844721;30;20052;-83
2021/12/12 18:43:36;;;;;;;;;;;;;;;3.85;61.52;98571.72;9847919;29;20468;-82
2021/12/12 18:49:04;;;;;;;10.50;6.22;;;;;;;3.98;60.57;98566.22;9867051;30;19926;-81
2021/12/12 18:54:37;;;;;;;11.30;6.38;;;;;;;4.01;60.94;98567.91;9879710;30;20048;-82
2021/12/12 19:06:33;;;;;;;11.77;6.85;;;;;;;4.02;61.72;98552.09;10256049;24;20071;-80
2021/12/12 19:11:58;;;;;;;11.00;6.88;;;;;;;4.01;61.89;98554.09;10247952;24;20124;-80
2021/12/12 19:17:21;;;;;;;11.30;6.85;;;;;;;4.06;61.88;98555.28;9838886;30;20056;-79
2021/12/12 19:22:46;;;;;;;9.93;7.15;;;;;;;4.11;61.35;98562.72;9851754;30;20044;-81
2021/12/12 19:28:07;;;;;;;11.23;6.97;;;;;;;4.18;61.90;98556.56;9851421;30;20040;-81
2021/12/12 19:33:31;;;;;;;11.77;7.40;;;;;;;4.19;61.67;98560.81;9847968;30;20070;-81
2021/12/12 19:38:53;;;;;;;10.52;7.10;;;;;;;4.19;61.88;98557.31;9860369;30;20046;-80
2021/12/12 19:44:18;;;;;;;12.02;7.28;;;;;;;4.21;62.01;98566.53;9856408;30;20376;-80
2021/12/12 19:49:41;;;;;;;11.30;6.97;;;;;;;4.21;61.71;98561.00;9838745;30;20059;-80
2021/12/12 19:55:11;;;;;;;13.25;7.38;;;;;;;4.25;62.25;98563.47;9834498;30;20052;-80
2021/12/12 20:00:33;;;;;;;11.48;6.93;;;;;;;4.17;62.48;98571.66;9864816;30;20071;-80
2021/12/12 20:06:02;;;;;;;13.10;7.97;;;;;;;4.24;62.01;98581.31;9873540;30;20084;-81
2021/12/12 20:11:30;;;;;;;9.13;6.57;;;;;;;4.23;62.31;98575.03;9853836;30;20100;-80
2021/12/12 20:16:56;;;;;;;11.90;7.72;;;;;;;4.24;63.02;98575.78;9841635;30;20052;-81
2021/12/12 20:22:32;;;;;;;13.57;7.25;;;;;;;4.28;62.96;98570.69;10353831;24;20033;31
2021/12/12 20:28:18;;;;;;;10.98;6.35;;;;;;;4.31;62.63;98569.63;9810863;30;20037;-80
2021/12/12 20:33:43;;;;;;;10.63;6.82;;;;;;;4.31;62.99;98567.59;9782271;30;20053;-80
2021/12/12 20:39:14;;;;;;;9.02;5.70;;;;;;;4.33;63.36;98572.59;9811869;30;20052;-81
2021/12/12 20:44:48;;;;;;;11.82;5.55;;;;;;;4.26;63.90;98565.69;9793254;30;20049;-80
2021/12/12 20:50:15;;;;;;;9.88;5.43;;;;;;;4.28;63.80;98574.19;9784286;30;20025;-82
2021/12/12 20:55:53;;;;;;;6.78;5.22;;;;;;;4.29;64.53;98572.91;9788464;30;20060;-81
2021/12/12 21:01:16;;;;;;;9.90;5.25;;;;;;;4.28;64.73;98582.50;9798747;30;20044;-79
2021/12/12 21:06:42;;;;;;;9.88;5.53;;;;;;;4.32;64.72;98571.09;9751537;30;20087;-82
2021/12/12 21:12:09;;;;;;;8.25;5.40;;;;;;;4.28;65.72;98584.50;9760677;30;20101;-79
2021/12/12 21:17:30;;;;;;;8.82;5.60;;;;;;;4.26;65.57;98562.94;9763042;30;20064;-78
2021/12/12 21:22:59;;;;;;;9.38;5.85;;;;;;;4.19;65.82;98566.34;9774476;30;20084;-81
2021/12/12 21:28:23;;;;;;;9.65;6.05;;;;;;;4.18;65.83;98556.56;9761760;30;20037;-82
2021/12/12 21:33:55;;;;;;;8.25;5.28;;;;;;;4.16;65.98;98537.00;9761190;30;20084;-81
2021/12/12 21:39:25;;;;;;;8.93;6.07;;;;;;;4.14;66.42;98538.81;9760968;30;20060;-80
2021/12/12 21:44:48;;;;;;;7.53;5.20;;;;;;;4.11;67.31;98535.09;9771635;30;20127;-83
2021/12/12 21:50:35;;;;;;;9.35;5.28;;;;;;;4.12;66.79;98542.09;9773821;30;20053;-80
2021/12/12 21:56:04;;;;;;;7.30;4.70;;;;;;;4.15;67.20;98541.06;9773070;30;20053;-80
2021/12/12 22:01:33;;;;;;;7.72;4.45;;;;;;;4.05;67.33;98534.44;9761944;30;20038;-80
2021/12/12 22:13:16;;;;;;;6.78;4.70;;;;;;;3.99;68.53;98522.78;11622573;24;20096;-83
2021/12/12 22:18:42;;;;;;;7.13;4.63;;;;;;;3.99;68.38;98522.78;10706899;24;20122;-84
2021/12/12 22:24:11;;;;;;;6.45;4.70;;;;;;;4.04;68.40;98519.13;9835447;30;20049;-80
2021/12/12 22:29:33;;;;;;;6.72;4.47;;;;;;;4.01;68.55;98520.97;9820915;30;20127;-81
2021/12/12 22:34:58;;;;;;;6.55;4.13;;;;;;;4.01;67.86;98520.22;9826631;30;20083;-81
2021/12/12 22:40:23;;;;;;;6.28;4.72;;;;;;;3.96;69.12;98515.56;9816329;30;20052;-81
2021/12/12 22:45:49;;;;;;;5.28;3.92;;;;;;;3.97;68.77;98517.03;9830283;30;20094;-81
2021/12/12 22:51:50;;;;;;;5.63;3.70;;;;;;;4.00;69.09;98516.72;9825917;30;20396;-80
2021/12/12 22:57:17;;;;;;;4.82;3.63;;;;;;;4.00;69.23;98513.94;9823656;30;20180;-81
2021/12/12 23:02:38;;;;;;;6.57;5.03;;;;;;;4.09;69.45;98514.81;9820463;30;20052;-81
2021/12/12 23:08:04;;;;;;;4.68;3.78;;;;;;;4.06;69.18;98511.09;9805420;30;20135;-80
2021/12/12 23:13:27;;;;;;;5.38;3.35;;;;;;;4.12;69.07;98513.72;9819611;30;20113;-80
2021/12/12 23:18:54;;;;;;;4.65;3.33;;;;;;;4.17;69.46;98510.13;9806678;30;20064;-81
2021/12/12 23:24:19;;;;;;;6.30;4.22;;;;;;;4.17;68.98;98510.84;9833220;30;20075;-81
2021/12/12 23:29:43;;;;;;;5.22;3.42;;;;;;;4.22;69.68;98495.44;9849866;30;20056;-81
2021/12/12 23:35:10;;;;;;;5.57;3.53;;;;;;;4.24;69.58;98503.94;9824448;30;20052;-81
2021/12/12 23:40:33;;;;;;;4.55;3.15;;;;;;;4.21;69.51;98502.97;9824478;30;20071;-80
2021/12/12 23:46:00;;;;;;;4.50;3.15;;;;;;;4.24;70.12;98506.69;9836346;30;20110;-80
2021/12/12 23:51:24;;;;;;;5.00;3.03;;;;;;;4.24;69.75;98515.72;9824829;30;20056;-81
2021/12/12 23:56:48;;;;;;;4.88;3.17;;;;;;;4.22;69.93;98506.47;9845571;30;20048;-80
